createdAt,value
2022-08-24T00:02:12.098Z,1.23
2022-08-24T00:05:54.073Z,1.13
2022-08-24T00:09:39.768Z,0.98
2022-08-24T00:13:21.608Z,0.80
2022-08-24T00:17:04.825Z,0.80
2022-08-24T00:20:46.703Z,0.80
2022-08-24T00:24:28.524Z,0.70
2022-08-24T00:28:11.525Z,0.80
2022-08-24T00:31:53.627Z,0.98
2022-08-24T00:35:38.065Z,1.02
2022-08-24T00:39:22.419Z,1.00
2022-08-24T00:43:06.484Z,1.02
2022-08-24T00:46:58.142Z,1.10
2022-08-24T00:50:58.653Z,1.10
2022-08-24T00:54:51.019Z,1.20
2022-08-24T00:58:47.151Z,1.30
2022-08-24T01:02:42.045Z,1.50
2022-08-24T01:06:26.522Z,1.40
2022-08-24T01:10:12.870Z,1.30
2022-08-24T01:13:57.739Z,1.40
2022-08-24T01:17:59.542Z,1.40
2022-08-24T01:21:54.802Z,1.42
2022-08-24T01:25:39.094Z,1.33
2022-08-24T01:29:28.795Z,1.52
2022-08-24T01:33:23.719Z,1.58
2022-08-24T01:37:09.764Z,1.50
2022-08-24T01:40:55.272Z,1.67
2022-08-24T01:44:41.440Z,1.40
2022-08-24T01:48:28.089Z,1.55
2022-08-24T01:52:13.586Z,1.58
2022-08-24T01:55:58.427Z,1.77
2022-08-24T01:59:41.097Z,1.80
2022-08-24T02:03:27.895Z,2.25
2022-08-24T02:07:13.501Z,1.90
2022-08-24T02:10:58.893Z,1.90
2022-08-24T02:14:44.311Z,2.00
2022-08-24T02:18:26.181Z,1.70
2022-08-24T02:22:08.539Z,1.90
2022-08-24T02:25:52.966Z,1.92
2022-08-24T02:29:34.835Z,1.98
2022-08-24T02:33:19.891Z,1.80
2022-08-24T02:37:03.554Z,2.05
2022-08-24T02:40:53.090Z,2.10
2022-08-24T02:44:37.533Z,1.90
2022-08-24T02:48:19.983Z,1.90
2022-08-24T02:52:02.055Z,1.80
2022-08-24T02:55:44.316Z,1.83
2022-08-24T02:59:26.123Z,1.55
2022-08-24T03:03:13.644Z,1.50
2022-08-24T03:06:55.435Z,2.95
2022-08-24T03:10:38.526Z,1.58
2022-08-24T03:14:23.537Z,1.90
2022-08-24T03:18:05.450Z,1.75
2022-08-24T03:21:47.288Z,1.75
2022-08-24T03:25:29.543Z,2.00
2022-08-24T03:29:12.182Z,2.20
2022-08-24T03:32:54.655Z,1.80
2022-08-24T03:36:36.502Z,1.90
2022-08-24T03:40:24.718Z,2.05
2022-08-24T03:44:10.215Z,1.77
2022-08-24T03:48:03.735Z,1.83
2022-08-24T03:51:45.526Z,1.95
2022-08-24T03:55:27.425Z,2.17
2022-08-24T03:59:11.489Z,2.28
2022-08-24T04:02:55.670Z,2.22
2022-08-24T04:06:37.950Z,2.30
2022-08-24T04:10:19.746Z,2.30
2022-08-24T04:14:01.693Z,2.42
2022-08-24T04:17:51.062Z,2.58
2022-08-24T04:21:36.822Z,2.45
2022-08-24T04:25:22.831Z,2.72
2022-08-24T04:29:10.294Z,2.70
2022-08-24T04:32:52.087Z,2.60
2022-08-24T04:36:34.680Z,2.60
2022-08-24T04:40:20.137Z,2.83
2022-08-24T04:44:20.299Z,2.63
2022-08-24T04:48:02.262Z,3.05
2022-08-24T04:51:44.158Z,2.97
2022-08-24T04:55:34.811Z,2.60
2022-08-24T04:59:24.597Z,2.50
2022-08-24T05:03:08.128Z,2.88
2022-08-24T05:06:53.070Z,2.33
2022-08-24T05:10:40.706Z,2.70
2022-08-24T05:14:26.705Z,2.45
2022-08-24T05:21:55.149Z,2.63
2022-08-24T05:25:38.429Z,3.08
2022-08-24T05:29:23.264Z,3.10
2022-08-24T05:33:07.811Z,3.33
2022-08-24T05:36:49.630Z,3.60
2022-08-24T05:40:36.695Z,3.53
2022-08-24T05:44:18.796Z,3.40
2022-08-24T05:48:02.817Z,3.63
2022-08-24T05:51:44.699Z,3.20
2022-08-24T05:55:33.522Z,3.17
2022-08-24T05:59:17.936Z,3.20
2022-08-24T06:03:00.508Z,2.70
2022-08-24T06:06:48.672Z,2.72
2022-08-24T06:10:38.793Z,2.60
2022-08-24T06:14:25.070Z,3.28
2022-08-24T06:18:09.061Z,2.65
2022-08-24T06:22:04.181Z,2.45
2022-08-24T06:26:15.520Z,2.80
2022-08-24T06:30:02.003Z,2.85
2022-08-24T06:33:46.328Z,2.88
2022-08-24T06:37:30.638Z,2.85
2022-08-24T06:41:13.594Z,2.40
2022-08-24T06:44:56.007Z,2.55
2022-08-24T06:48:37.813Z,2.30
2022-08-24T06:52:21.685Z,2.22
2022-08-24T06:56:06.153Z,2.38
2022-08-24T06:59:50.252Z,2.40
2022-08-24T07:03:34.674Z,2.45
2022-08-24T07:07:19.939Z,2.20
2022-08-24T07:11:04.711Z,2.20
2022-08-24T07:14:48.750Z,2.10
2022-08-24T07:18:36.990Z,1.98
2022-08-24T07:22:29.099Z,2.05
2022-08-24T07:26:21.429Z,1.90
2022-08-24T07:30:25.847Z,2.20
2022-08-24T07:34:09.687Z,2.00
2022-08-24T07:37:55.064Z,1.95
2022-08-24T07:45:52.991Z,1.60
2022-08-24T07:49:39.521Z,1.70
2022-08-24T07:53:27.892Z,1.60
2022-08-24T07:57:15.311Z,1.63
2022-08-24T08:00:57.663Z,1.75
2022-08-24T08:04:42.088Z,1.77
2022-08-24T08:08:30.566Z,1.45
2022-08-24T08:12:15.161Z,1.65
2022-08-24T08:15:59.859Z,1.30
2022-08-24T08:19:47.482Z,1.35
2022-08-24T08:23:48.267Z,1.50
2022-08-24T08:27:30.198Z,1.42
2022-08-24T08:31:15.000Z,1.80
2022-08-24T08:35:02.095Z,1.70
2022-08-24T08:38:46.771Z,1.42
2022-08-24T08:42:29.893Z,1.40
2022-08-24T08:46:27.134Z,1.60
2022-08-24T08:50:25.673Z,1.20
2022-08-24T08:54:43.756Z,1.40
2022-08-24T08:58:32.767Z,1.65
2022-08-24T09:02:38.674Z,1.40
2022-08-24T09:06:42.156Z,1.40
2022-08-24T09:10:33.815Z,1.30
2022-08-24T09:14:43.112Z,1.40
2022-08-24T09:19:02.954Z,1.40
2022-08-24T09:22:48.116Z,1.40
2022-08-24T09:26:53.372Z,1.40
2022-08-24T09:31:16.911Z,1.95
2022-08-24T09:35:42.168Z,1.33
2022-08-24T09:39:51.131Z,1.00
2022-08-24T09:43:45.088Z,0.90
2022-08-24T09:48:04.980Z,0.88
2022-08-24T09:52:09.353Z,1.20
2022-08-24T09:56:36.318Z,1.40
2022-08-24T10:00:41.881Z,1.10
2022-08-24T10:04:39.486Z,1.30
2022-08-24T10:08:58.954Z,1.20
2022-08-24T10:12:45.209Z,1.30
2022-08-24T10:17:14.328Z,1.03
2022-08-24T10:21:26.342Z,0.70
2022-08-24T10:25:33.451Z,0.80
2022-08-24T10:29:48.345Z,0.60
2022-08-24T10:33:43.429Z,0.70
2022-08-24T10:37:49.984Z,0.80
2022-08-24T10:41:58.228Z,0.98
2022-08-24T10:46:10.227Z,0.60
2022-08-24T10:50:08.537Z,0.50
2022-08-24T10:53:55.928Z,0.73
2022-08-24T10:57:57.241Z,0.85
2022-08-24T11:01:39.866Z,0.50
2022-08-24T11:05:38.501Z,0.88
2022-08-24T11:09:20.266Z,0.70
2022-08-24T11:13:19.182Z,0.80
2022-08-24T11:17:16.002Z,0.98
2022-08-24T11:21:00.512Z,0.52
2022-08-24T11:24:47.869Z,0.73
2022-08-24T11:28:37.865Z,0.63
2022-08-24T11:33:04.765Z,0.60
2022-08-24T11:36:47.044Z,0.50
2022-08-24T11:40:37.713Z,0.80
2022-08-24T11:44:47.370Z,0.55
2022-08-24T11:48:32.131Z,0.60
2022-08-24T11:52:20.062Z,0.70
2022-08-24T11:56:11.377Z,0.88
2022-08-24T12:00:17.635Z,0.80
2022-08-24T12:04:42.362Z,0.80
2022-08-24T12:08:50.013Z,0.63
2022-08-24T12:12:55.901Z,0.70
2022-08-24T12:16:52.834Z,0.60
2022-08-24T12:20:48.062Z,0.60
2022-08-24T12:24:39.473Z,0.60
2022-08-24T12:28:41.460Z,0.73
2022-08-24T12:32:31.645Z,0.60
2022-08-24T12:36:23.559Z,0.63
2022-08-24T12:40:40.428Z,0.90
2022-08-24T12:44:35.221Z,0.63
2022-08-24T12:48:39.684Z,0.70
2022-08-24T12:52:52.202Z,0.88
2022-08-24T12:57:31.528Z,0.50
2022-08-24T13:01:17.241Z,0.80
2022-08-24T13:05:08.638Z,0.70
2022-08-24T13:08:52.757Z,0.70
2022-08-24T13:12:43.802Z,0.80
2022-08-24T13:16:57.491Z,0.70
2022-08-24T13:20:44.542Z,0.70
2022-08-24T13:24:29.377Z,0.60
2022-08-24T13:28:36.207Z,0.80
2022-08-24T13:32:44.007Z,0.70
2022-08-24T13:36:36.934Z,0.80
2022-08-24T13:40:27.813Z,0.85
2022-08-24T13:44:16.173Z,0.70
2022-08-24T13:48:11.635Z,0.88
2022-08-24T13:52:30.871Z,1.00
2022-08-24T13:56:12.827Z,0.98
2022-08-24T14:00:17.919Z,0.93
2022-08-24T14:04:29.038Z,1.13
2022-08-24T14:08:29.794Z,0.70
2022-08-24T14:12:26.367Z,0.80
2022-08-24T14:16:42.075Z,0.80
2022-08-24T14:20:40.452Z,0.70
2022-08-24T14:24:46.439Z,0.80
2022-08-24T14:28:44.204Z,0.90
2022-08-24T14:32:30.355Z,0.85
2022-08-24T14:36:19.270Z,0.90
2022-08-24T14:40:50.806Z,1.00
2022-08-24T14:44:38.330Z,0.75
2022-08-24T14:52:33.137Z,0.70
2022-08-24T14:56:26.435Z,1.17
2022-08-24T15:00:14.626Z,0.95
2022-08-24T15:04:37.179Z,0.90
2022-08-24T15:08:45.905Z,0.82
2022-08-24T15:12:44.590Z,0.80
2022-08-24T15:16:53.831Z,0.70
2022-08-24T15:20:36.107Z,0.75
2022-08-24T15:25:01.273Z,0.70
2022-08-24T15:28:56.607Z,0.70
2022-08-24T15:32:44.907Z,0.88
2022-08-24T15:36:34.764Z,0.70
2022-08-24T15:40:31.322Z,0.75
2022-08-24T15:44:34.673Z,0.82
2022-08-24T15:48:24.654Z,1.00
2022-08-24T15:52:35.151Z,0.88
2022-08-24T15:56:31.183Z,0.80
2022-08-24T16:00:43.902Z,0.68
2022-08-24T16:05:30.079Z,0.68
2022-08-24T16:09:20.886Z,0.70
2022-08-24T16:13:17.436Z,0.95
2022-08-24T16:17:01.857Z,0.80
2022-08-24T16:20:44.278Z,0.65
2022-08-24T16:24:38.751Z,0.90
2022-08-24T16:28:23.745Z,1.00
2022-08-24T16:32:32.305Z,0.70
2022-08-24T16:36:31.912Z,0.88
2022-08-24T16:40:14.130Z,0.70
2022-08-24T16:44:00.125Z,0.70
2022-08-24T16:47:44.357Z,0.80
2022-08-24T16:51:34.933Z,0.80
2022-08-24T16:55:30.993Z,0.80
2022-08-24T16:59:20.103Z,0.63
2022-08-24T17:03:01.889Z,0.90
2022-08-24T17:10:46.081Z,0.80
2022-08-24T17:14:30.890Z,0.82
2022-08-24T17:18:14.302Z,0.82
2022-08-24T17:21:59.411Z,0.70
2022-08-24T17:25:44.794Z,0.70
2022-08-24T17:29:26.658Z,0.90
2022-08-24T17:33:08.890Z,0.90
2022-08-24T17:36:56.014Z,0.90
2022-08-24T17:40:37.911Z,0.93
2022-08-24T17:44:26.251Z,0.90
2022-08-24T17:48:08.462Z,0.90
2022-08-24T17:51:59.869Z,0.90
2022-08-24T17:55:43.850Z,0.90
2022-08-24T17:59:34.348Z,1.10
2022-08-24T18:03:16.781Z,0.90
2022-08-24T18:07:01.661Z,1.02
2022-08-24T18:10:47.825Z,1.02
2022-08-24T18:14:36.510Z,0.88
2022-08-24T18:18:29.400Z,0.90
2022-08-24T18:22:14.052Z,1.20
2022-08-24T18:25:57.983Z,0.82
2022-08-24T18:29:42.916Z,0.90
2022-08-24T18:33:25.290Z,1.17
2022-08-24T18:37:11.359Z,1.02
2022-08-24T18:40:53.449Z,1.10
2022-08-24T18:52:17.133Z,1.10
2022-08-24T18:56:10.568Z,1.30
2022-08-24T18:59:54.974Z,1.20
2022-08-24T19:03:37.001Z,1.10
2022-08-24T19:07:30.238Z,0.90
2022-08-24T19:11:13.066Z,1.08
2022-08-24T19:15:09.426Z,1.00
2022-08-24T19:19:12.427Z,1.05
2022-08-24T19:23:07.379Z,1.02
2022-08-24T19:27:01.735Z,1.17
2022-08-24T19:30:46.762Z,1.13
2022-08-24T19:34:33.911Z,1.58
2022-08-24T19:38:25.421Z,1.40
2022-08-24T19:42:08.287Z,1.20
2022-08-24T19:46:03.130Z,1.50
2022-08-24T19:49:48.396Z,2.88
2022-08-24T19:53:49.767Z,2.30
2022-08-24T19:57:42.034Z,3.40
2022-08-24T20:01:35.358Z,3.45
2022-08-24T20:05:19.071Z,1.40
2022-08-24T20:09:04.314Z,1.25
2022-08-24T20:12:49.721Z,1.27
2022-08-24T20:16:50.861Z,1.17
2022-08-24T20:20:32.931Z,1.50
2022-08-24T20:24:18.125Z,1.33
2022-08-24T20:28:27.763Z,1.40
2022-08-24T20:32:09.176Z,1.30
2022-08-24T20:39:35.670Z,1.60
2022-08-24T20:43:18.203Z,1.52
2022-08-24T20:47:01.433Z,1.50
2022-08-24T20:50:43.597Z,1.73
2022-08-24T20:54:25.565Z,1.70
2022-08-24T20:58:08.062Z,1.95
2022-08-24T21:01:52.611Z,1.90
2022-08-24T21:05:37.473Z,1.90
2022-08-24T21:09:21.946Z,1.90
2022-08-24T21:13:05.369Z,2.00
2022-08-24T21:16:49.822Z,2.00
2022-08-24T21:20:37.152Z,2.85
2022-08-24T21:24:26.924Z,2.10
2022-08-24T21:28:14.479Z,1.80
2022-08-24T21:32:17.035Z,2.10
2022-08-24T21:36:02.218Z,1.98
2022-08-24T21:39:46.838Z,1.70
2022-08-24T21:43:28.879Z,1.80
2022-08-24T21:47:16.436Z,2.00
2022-08-24T21:50:58.563Z,2.00
2022-08-24T21:54:48.654Z,2.10
2022-08-24T21:58:30.456Z,2.40
2022-08-24T22:02:16.805Z,2.20
2022-08-24T22:06:02.925Z,2.30
2022-08-24T22:09:51.029Z,2.30
2022-08-24T22:13:38.690Z,2.25
2022-08-24T22:17:34.954Z,2.20
2022-08-24T22:21:45.875Z,2.40
2022-08-24T22:25:30.060Z,2.10
2022-08-24T22:29:12.281Z,2.30
2022-08-24T22:32:54.083Z,3.00
2022-08-24T22:36:43.620Z,3.78
2022-08-24T22:40:27.925Z,5.03
2022-08-24T22:44:22.016Z,3.88
2022-08-24T22:48:06.745Z,4.97
2022-08-24T22:51:49.189Z,4.50
2022-08-24T22:55:42.747Z,4.88
2022-08-24T22:59:26.671Z,5.43
2022-08-24T23:03:11.224Z,4.93
2022-08-24T23:06:56.038Z,4.88
2022-08-24T23:10:41.093Z,4.15
2022-08-24T23:14:24.082Z,3.88
2022-08-24T23:18:25.889Z,4.00
2022-08-24T23:22:13.049Z,3.30
2022-08-24T23:25:55.879Z,3.22
2022-08-24T23:29:48.148Z,3.00
2022-08-24T23:33:30.030Z,3.28
2022-08-24T23:37:20.119Z,3.17
2022-08-24T23:41:13.299Z,3.10
2022-08-24T23:44:57.546Z,2.95
2022-08-24T23:48:42.542Z,2.88
2022-08-24T23:52:42.833Z,3.35
2022-08-24T23:56:34.278Z,2.50
